Greenville Farm
1800 N 800 E, North Logan
Last Weather Update:07/30/2011 11:00:00 PM
Date
ETo
ETc
Rain
Irrigation
Req
Temp
Max
Temp
Min
Temp
Avg
Avg RH
Avg Wind
Avg Solar
inches
inches
incehs
inches
F
F
F
%
%
watts/m2
06/01/2011 0.26" 0.21" 0.07" 0.15" 78.0° 45.3° 64.5° 29.1% 5.7 MPH 26.7w/m2
06/02/2011 0.17" 0.13" 0.00" 0.13" 67.5° 39.7° 52.1° 44.8% 5.3 MPH 23.4w/m2
06/03/2011 0.18" 0.15" 0.00" 0.15" 60.9° 35.3° 48.9° 53.3% 3.2 MPH 31.4w/m2
06/04/2011 0.22" 0.18" 0.00" 0.18" 76.7° 38.5° 57.3° 44.9% 3.4 MPH 30.4w/m2
06/05/2011 0.24" 0.20" 0.00" 0.20" 81.9° 45.4° 64.2° 45.0% 3.5 MPH 31.5w/m2
06/06/2011 0.18" 0.14" 0.03" 0.12" 80.7° 48.2° 60.3° 51.2% 4.6 MPH 19.0w/m2
06/07/2011 0.17" 0.14" 0.00" 0.14" 66.5° 50.6° 56.7° 57.2% 4.7 MPH 21.9w/m2
06/08/2011 0.16" 0.13" 0.03" 0.11" 69.7° 42.3° 52.9° 74.3% 4.3 MPH 24.7w/m2
06/09/2011 0.12" 0.10" 0.02" 0.08" 60.9° 41.4° 49.5° 71.3% 3.9 MPH 20.1w/m2
06/10/2011 0.19" 0.15" 0.02" 0.14" 68.1° 37.6° 54.3° 58.6% 3.9 MPH 28.2w/m2
06/11/2011 0.19" 0.16" 0.00" 0.16" 71.8° 48.5° 60.5° 60.4% 4.1 MPH 25.7w/m2
06/12/2011 0.13" 0.11" 0.01" 0.10" 70.4° 52.2° 59.5° 62.4% 3.5 MPH 18.0w/m2
06/13/2011 0.10" 0.08" 0.01" 0.07" 69.7° 48.1° 55.9° 73.5% 4.0 MPH 13.7w/m2
06/14/2011 0.22" 0.18" 0.00" 0.18" 72.0° 45.2° 59.6° 57.7% 3.1 MPH 31.1w/m2
06/15/2011 0.24" 0.19" 0.01" 0.18" 79.5° 46.2° 62.5° 53.6% 4.2 MPH 31.0w/m2
06/16/2011 0.15" 0.12" 0.00" 0.12" 63.9° 42.5° 52.7° 55.9% 4.2 MPH 20.5w/m2
06/17/2011 0.21" 0.17" 0.00" 0.17" 66.9° 36.5° 52.4° 51.3% 3.3 MPH 30.9w/m2
06/18/2011 0.20" 0.16" 0.01" 0.15" 74.0° 43.0° 58.7° 49.4% 3.9 MPH 24.3w/m2
06/19/2011 0.10" 0.08" 0.09" 0.01" 62.1° 47.2° 52.9° 80.9% 3.8 MPH 15.3w/m2
06/20/2011 0.21" 0.17" 0.01" 0.16" 70.8° 46.2° 58.1° 62.6% 3.3 MPH 31.7w/m2
06/21/2011 0.22" 0.18" 0.01" 0.17" 76.2° 46.5° 62.3° 55.9% 3.1 MPH 31.0w/m2
06/22/2011 0.24" 0.19" 0.00" 0.19" 84.7° 50.0° 67.4° 53.2% 3.2 MPH 31.4w/m2
06/23/2011 0.25" 0.20" 0.00" 0.20" 87.2° 56.4° 70.9° 50.6% 4.0 MPH 30.4w/m2
06/24/2011 0.24" 0.19" 0.00" 0.19" 81.4° 55.5° 67.8° 54.2% 3.8 MPH 30.4w/m2
06/25/2011 0.24" 0.19" 0.00" 0.19" 80.9° 50.9° 66.2° 49.8% 3.5 MPH 31.1w/m2
06/26/2011 0.24" 0.20" 0.00" 0.20" 75.5° 57.1° 66.2° 41.1% 4.2 MPH 30.5w/m2
06/27/2011 0.24" 0.19" 0.00" 0.19" 85.7° 47.2° 66.2° 45.5% 3.0 MPH 30.9w/m2
06/28/2011 0.29" 0.23" 0.00" 0.23" 91.4° 53.5° 73.8° 38.4% 4.7 MPH 28.8w/m2
06/29/2011 0.29" 0.23" 0.00" 0.23" 87.5° 67.1° 77.9° 27.1% 7.5 MPH 21.3w/m2
06/30/2011 0.24" 0.19" 0.00" 0.19" 79.2° 55.9° 67.1° 52.0% 4.0 MPH 30.4w/m2
Totals: 6.16" 4.92" 0.32" 4.67" 91.4° 35.3° 60.6° 53.5% 4.0 MPH 26.5w/m2